sensor_id;sensor_type;location;lat;lon;timestamp;P1;durP1;ratioP1;P2;durP2;ratioP2
35294;SDS011;21413;48.032;7.764;2023-05-07T00:02:00;5.27;;;4.83;;
35294;SDS011;21413;48.032;7.764;2023-05-07T00:04:26;4.60;;;4.10;;
35294;SDS011;21413;48.032;7.764;2023-05-07T00:06:53;5.70;;;5.20;;
35294;SDS011;21413;48.032;7.764;2023-05-07T00:09:21;7.23;;;4.47;;
35294;SDS011;21413;48.032;7.764;2023-05-07T00:11:47;5.10;;;4.70;;
35294;SDS011;21413;48.032;7.764;2023-05-07T00:14:13;4.83;;;4.57;;
35294;SDS011;21413;48.032;7.764;2023-05-07T00:16:39;3.92;;;3.72;;
35294;SDS011;21413;48.032;7.764;2023-05-07T00:19:05;4.80;;;4.40;;
35294;SDS011;21413;48.032;7.764;2023-05-07T00:21:31;4.50;;;4.30;;
35294;SDS011;21413;48.032;7.764;2023-05-07T00:23:57;3.60;;;3.50;;
35294;SDS011;21413;48.032;7.764;2023-05-07T00:26:23;4.70;;;4.40;;
35294;SDS011;21413;48.032;7.764;2023-05-07T00:28:49;4.90;;;4.50;;
35294;SDS011;21413;48.032;7.764;2023-05-07T00:31:15;4.67;;;4.47;;
35294;SDS011;21413;48.032;7.764;2023-05-07T00:33:41;4.80;;;4.50;;
35294;SDS011;21413;48.032;7.764;2023-05-07T00:36:07;4.40;;;4.07;;
35294;SDS011;21413;48.032;7.764;2023-05-07T00:38:33;8.10;;;5.00;;
35294;SDS011;21413;48.032;7.764;2023-05-07T00:40:59;5.20;;;4.90;;
35294;SDS011;21413;48.032;7.764;2023-05-07T00:43:27;5.37;;;4.97;;
35294;SDS011;21413;48.032;7.764;2023-05-07T00:45:55;4.70;;;4.47;;
35294;SDS011;21413;48.032;7.764;2023-05-07T00:48:21;5.33;;;4.53;;
35294;SDS011;21413;48.032;7.764;2023-05-07T00:50:49;4.60;;;4.10;;
35294;SDS011;21413;48.032;7.764;2023-05-07T00:53:17;4.93;;;4.63;;
35294;SDS011;21413;48.032;7.764;2023-05-07T00:55:43;4.60;;;4.30;;
35294;SDS011;21413;48.032;7.764;2023-05-07T00:58:09;4.80;;;4.60;;
35294;SDS011;21413;48.032;7.764;2023-05-07T01:00:35;7.50;;;4.50;;
35294;SDS011;21413;48.032;7.764;2023-05-07T01:03:01;6.77;;;5.60;;
35294;SDS011;21413;48.032;7.764;2023-05-07T01:05:27;5.57;;;5.27;;
35294;SDS011;21413;48.032;7.764;2023-05-07T01:07:54;5.20;;;4.90;;
35294;SDS011;21413;48.032;7.764;2023-05-07T01:10:20;5.10;;;4.77;;
35294;SDS011;21413;48.032;7.764;2023-05-07T01:12:46;4.73;;;4.47;;
35294;SDS011;21413;48.032;7.764;2023-05-07T01:15:14;9.80;;;5.50;;
35294;SDS011;21413;48.032;7.764;2023-05-07T01:17:40;6.03;;;4.80;;
35294;SDS011;21413;48.032;7.764;2023-05-07T01:20:07;4.97;;;4.57;;
35294;SDS011;21413;48.032;7.764;2023-05-07T01:22:36;5.40;;;5.00;;
35294;SDS011;21413;48.032;7.764;2023-05-07T01:25:03;4.57;;;4.37;;
35294;SDS011;21413;48.032;7.764;2023-05-07T01:27:32;4.70;;;4.50;;
35294;SDS011;21413;48.032;7.764;2023-05-07T01:29:58;5.97;;;5.47;;
35294;SDS011;21413;48.032;7.764;2023-05-07T01:32:45;5.20;;;4.80;;
35294;SDS011;21413;48.032;7.764;2023-05-07T01:35:17;4.73;;;4.30;;
35294;SDS011;21413;48.032;7.764;2023-05-07T01:37:44;4.40;;;4.30;;
35294;SDS011;21413;48.032;7.764;2023-05-07T01:40:11;5.67;;;5.17;;
35294;SDS011;21413;48.032;7.764;2023-05-07T01:42:40;5.23;;;4.83;;
35294;SDS011;21413;48.032;7.764;2023-05-07T01:45:07;5.00;;;4.80;;
35294;SDS011;21413;48.032;7.764;2023-05-07T01:47:33;5.90;;;5.43;;
35294;SDS011;21413;48.032;7.764;2023-05-07T01:49:59;5.23;;;4.93;;
35294;SDS011;21413;48.032;7.764;2023-05-07T01:52:25;4.37;;;4.17;;
35294;SDS011;21413;48.032;7.764;2023-05-07T01:54:55;5.50;;;5.00;;
35294;SDS011;21413;48.032;7.764;2023-05-07T01:57:21;5.63;;;5.13;;
35294;SDS011;21413;48.032;7.764;2023-05-07T01:59:47;5.10;;;4.80;;
35294;SDS011;21413;48.032;7.764;2023-05-07T02:02:13;4.43;;;4.10;;
35294;SDS011;21413;48.032;7.764;2023-05-07T02:04:39;4.37;;;3.97;;
35294;SDS011;21413;48.032;7.764;2023-05-07T02:07:07;5.13;;;4.67;;
35294;SDS011;21413;48.032;7.764;2023-05-07T02:09:33;5.00;;;4.60;;
35294;SDS011;21413;48.032;7.764;2023-05-07T02:11:59;5.90;;;4.70;;
35294;SDS011;21413;48.032;7.764;2023-05-07T02:14:26;10.43;;;4.73;;
35294;SDS011;21413;48.032;7.764;2023-05-07T02:16:52;4.50;;;4.17;;
35294;SDS011;21413;48.032;7.764;2023-05-07T02:19:20;4.67;;;4.37;;
35294;SDS011;21413;48.032;7.764;2023-05-07T02:21:47;5.20;;;4.80;;
35294;SDS011;21413;48.032;7.764;2023-05-07T02:24:13;5.83;;;4.73;;
35294;SDS011;21413;48.032;7.764;2023-05-07T02:26:40;7.10;;;5.20;;
35294;SDS011;21413;48.032;7.764;2023-05-07T02:29:06;4.80;;;4.60;;
35294;SDS011;21413;48.032;7.764;2023-05-07T02:31:32;4.83;;;4.07;;
35294;SDS011;21413;48.032;7.764;2023-05-07T02:34:01;5.90;;;4.80;;
35294;SDS011;21413;48.032;7.764;2023-05-07T02:36:27;5.03;;;4.60;;
35294;SDS011;21413;48.032;7.764;2023-05-07T02:38:53;5.30;;;4.97;;
35294;SDS011;21413;48.032;7.764;2023-05-07T02:41:19;8.20;;;4.90;;
35294;SDS011;21413;48.032;7.764;2023-05-07T02:43:45;5.23;;;4.73;;
35294;SDS011;21413;48.032;7.764;2023-05-07T02:46:11;7.77;;;4.63;;
35294;SDS011;21413;48.032;7.764;2023-05-07T02:48:37;3.90;;;3.70;;
35294;SDS011;21413;48.032;7.764;2023-05-07T02:51:03;4.43;;;4.00;;
35294;SDS011;21413;48.032;7.764;2023-05-07T02:53:30;4.73;;;4.43;;
35294;SDS011;21413;48.032;7.764;2023-05-07T02:55:57;4.10;;;4.00;;
35294;SDS011;21413;48.032;7.764;2023-05-07T02:58:23;6.43;;;4.33;;
35294;SDS011;21413;48.032;7.764;2023-05-07T03:00:49;4.73;;;4.40;;
35294;SDS011;21413;48.032;7.764;2023-05-07T03:03:15;7.10;;;3.57;;
35294;SDS011;21413;48.032;7.764;2023-05-07T03:05:42;4.60;;;4.20;;
35294;SDS011;21413;48.032;7.764;2023-05-07T03:08:10;4.83;;;4.63;;
35294;SDS011;21413;48.032;7.764;2023-05-07T03:10:36;8.03;;;4.30;;
35294;SDS011;21413;48.032;7.764;2023-05-07T03:13:03;5.50;;;4.60;;
35294;SDS011;21413;48.032;7.764;2023-05-07T03:15:31;4.57;;;4.30;;
35294;SDS011;21413;48.032;7.764;2023-05-07T03:17:57;4.70;;;4.50;;
35294;SDS011;21413;48.032;7.764;2023-05-07T03:20:23;4.63;;;3.70;;
35294;SDS011;21413;48.032;7.764;2023-05-07T03:22:49;6.67;;;3.90;;
35294;SDS011;21413;48.032;7.764;2023-05-07T03:25:15;6.03;;;4.57;;
35294;SDS011;21413;48.032;7.764;2023-05-07T03:27:44;4.80;;;4.43;;
35294;SDS011;21413;48.032;7.764;2023-05-07T03:30:10;4.20;;;4.10;;
35294;SDS011;21413;48.032;7.764;2023-05-07T03:32:36;4.70;;;4.40;;
35294;SDS011;21413;48.032;7.764;2023-05-07T03:35:02;4.13;;;3.93;;
35294;SDS011;21413;48.032;7.764;2023-05-07T03:37:28;4.37;;;4.27;;
35294;SDS011;21413;48.032;7.764;2023-05-07T03:39:56;4.93;;;4.63;;
35294;SDS011;21413;48.032;7.764;2023-05-07T03:42:25;4.13;;;4.00;;
35294;SDS011;21413;48.032;7.764;2023-05-07T03:44:51;5.53;;;4.10;;
35294;SDS011;21413;48.032;7.764;2023-05-07T03:47:19;6.27;;;4.03;;
35294;SDS011;21413;48.032;7.764;2023-05-07T03:49:45;4.27;;;3.97;;
35294;SDS011;21413;48.032;7.764;2023-05-07T03:52:13;12.63;;;4.23;;
35294;SDS011;21413;48.032;7.764;2023-05-07T03:54:39;5.70;;;4.10;;
35294;SDS011;21413;48.032;7.764;2023-05-07T03:57:05;4.20;;;4.10;;
35294;SDS011;21413;48.032;7.764;2023-05-07T03:59:31;4.30;;;4.20;;
35294;SDS011;21413;48.032;7.764;2023-05-07T04:01:57;4.23;;;3.93;;
35294;SDS011;21413;48.032;7.764;2023-05-07T04:04:23;5.27;;;3.80;;
35294;SDS011;21413;48.032;7.764;2023-05-07T04:06:52;4.20;;;4.00;;
35294;SDS011;21413;48.032;7.764;2023-05-07T04:09:18;4.60;;;4.17;;
35294;SDS011;21413;48.032;7.764;2023-05-07T04:11:44;4.57;;;4.40;;
35294;SDS011;21413;48.032;7.764;2023-05-07T04:14:10;4.37;;;3.93;;
35294;SDS011;21413;48.032;7.764;2023-05-07T04:16:36;4.90;;;4.50;;
35294;SDS011;21413;48.032;7.764;2023-05-07T04:19:05;10.73;;;4.90;;
35294;SDS011;21413;48.032;7.764;2023-05-07T04:21:30;4.17;;;4.00;;
35294;SDS011;21413;48.032;7.764;2023-05-07T04:23:56;4.60;;;4.13;;
35294;SDS011;21413;48.032;7.764;2023-05-07T04:26:22;11.90;;;4.37;;
35294;SDS011;21413;48.032;7.764;2023-05-07T04:28:49;5.90;;;4.33;;
35294;SDS011;21413;48.032;7.764;2023-05-07T04:31:15;3.93;;;3.83;;
35294;SDS011;21413;48.032;7.764;2023-05-07T04:33:41;6.70;;;4.60;;
35294;SDS011;21413;48.032;7.764;2023-05-07T04:36:09;5.17;;;4.60;;
35294;SDS011;21413;48.032;7.764;2023-05-07T04:38:35;4.77;;;4.50;;
35294;SDS011;21413;48.032;7.764;2023-05-07T04:41:02;4.30;;;4.10;;
35294;SDS011;21413;48.032;7.764;2023-05-07T04:43:29;4.23;;;4.10;;
35294;SDS011;21413;48.032;7.764;2023-05-07T04:45:57;4.53;;;4.30;;
35294;SDS011;21413;48.032;7.764;2023-05-07T04:48:23;5.03;;;4.73;;
35294;SDS011;21413;48.032;7.764;2023-05-07T04:50:49;4.93;;;4.60;;
35294;SDS011;21413;48.032;7.764;2023-05-07T04:53:16;4.17;;;3.90;;
35294;SDS011;21413;48.032;7.764;2023-05-07T04:55:45;4.43;;;4.23;;
35294;SDS011;21413;48.032;7.764;2023-05-07T04:58:11;6.63;;;4.00;;
35294;SDS011;21413;48.032;7.764;2023-05-07T05:00:37;5.37;;;4.80;;
35294;SDS011;21413;48.032;7.764;2023-05-07T05:03:04;5.53;;;4.40;;
35294;SDS011;21413;48.032;7.764;2023-05-07T05:05:30;5.20;;;4.63;;
35294;SDS011;21413;48.032;7.764;2023-05-07T05:07:56;4.00;;;3.90;;
35294;SDS011;21413;48.032;7.764;2023-05-07T05:10:22;5.50;;;5.10;;
35294;SDS011;21413;48.032;7.764;2023-05-07T05:12:48;5.40;;;4.87;;
35294;SDS011;21413;48.032;7.764;2023-05-07T05:15:14;5.13;;;4.60;;
35294;SDS011;21413;48.032;7.764;2023-05-07T05:17:40;4.73;;;4.33;;
35294;SDS011;21413;48.032;7.764;2023-05-07T05:20:06;5.60;;;4.53;;
35294;SDS011;21413;48.032;7.764;2023-05-07T05:22:34;7.67;;;4.73;;
35294;SDS011;21413;48.032;7.764;2023-05-07T05:25:00;4.80;;;4.47;;
35294;SDS011;21413;48.032;7.764;2023-05-07T05:27:26;5.10;;;4.90;;
35294;SDS011;21413;48.032;7.764;2023-05-07T05:29:52;4.50;;;4.37;;
35294;SDS011;21413;48.032;7.764;2023-05-07T05:32:20;5.20;;;4.80;;
35294;SDS011;21413;48.032;7.764;2023-05-07T05:34:47;7.57;;;6.43;;
35294;SDS011;21413;48.032;7.764;2023-05-07T05:37:15;6.03;;;5.73;;
35294;SDS011;21413;48.032;7.764;2023-05-07T05:39:41;5.20;;;4.90;;
35294;SDS011;21413;48.032;7.764;2023-05-07T05:42:07;6.40;;;4.90;;
35294;SDS011;21413;48.032;7.764;2023-05-07T05:44:35;5.20;;;4.90;;
35294;SDS011;21413;48.032;7.764;2023-05-07T05:47:02;16.70;;;14.67;;
35294;SDS011;21413;48.032;7.764;2023-05-07T05:49:31;9.00;;;5.70;;
35294;SDS011;21413;48.032;7.764;2023-05-07T05:51:57;10.30;;;5.80;;
35294;SDS011;21413;48.032;7.764;2023-05-07T05:54:23;6.77;;;5.00;;
35294;SDS011;21413;48.032;7.764;2023-05-07T05:56:49;6.00;;;5.60;;
35294;SDS011;21413;48.032;7.764;2023-05-07T05:59:17;5.67;;;5.10;;
35294;SDS011;21413;48.032;7.764;2023-05-07T06:01:43;4.90;;;4.80;;
35294;SDS011;21413;48.032;7.764;2023-05-07T06:04:09;5.30;;;5.00;;
35294;SDS011;21413;48.032;7.764;2023-05-07T06:06:35;6.10;;;5.70;;
35294;SDS011;21413;48.032;7.764;2023-05-07T06:09:05;5.90;;;5.33;;
35294;SDS011;21413;48.032;7.764;2023-05-07T06:11:31;8.20;;;6.03;;
35294;SDS011;21413;48.032;7.764;2023-05-07T06:13:57;7.83;;;7.03;;
35294;SDS011;21413;48.032;7.764;2023-05-07T06:16:24;8.03;;;7.50;;
35294;SDS011;21413;48.032;7.764;2023-05-07T06:18:50;9.00;;;8.07;;
35294;SDS011;21413;48.032;7.764;2023-05-07T06:21:16;8.50;;;7.50;;
35294;SDS011;21413;48.032;7.764;2023-05-07T06:23:42;9.63;;;8.57;;
35294;SDS011;21413;48.032;7.764;2023-05-07T06:26:08;9.07;;;8.17;;
35294;SDS011;21413;48.032;7.764;2023-05-07T06:28:36;9.03;;;8.43;;
35294;SDS011;21413;48.032;7.764;2023-05-07T06:31:12;8.70;;;7.90;;
35294;SDS011;21413;48.032;7.764;2023-05-07T06:33:38;12.33;;;7.83;;
35294;SDS011;21413;48.032;7.764;2023-05-07T06:36:07;9.60;;;8.70;;
35294;SDS011;21413;48.032;7.764;2023-05-07T06:38:33;8.27;;;7.67;;
35294;SDS011;21413;48.032;7.764;2023-05-07T06:40:59;7.93;;;7.40;;
35294;SDS011;21413;48.032;7.764;2023-05-07T06:43:25;12.03;;;7.60;;
35294;SDS011;21413;48.032;7.764;2023-05-07T06:45:51;8.87;;;8.27;;
35294;SDS011;21413;48.032;7.764;2023-05-07T06:48:17;12.80;;;8.53;;
35294;SDS011;21413;48.032;7.764;2023-05-07T06:50:43;9.77;;;8.90;;
35294;SDS011;21413;48.032;7.764;2023-05-07T06:53:11;9.47;;;8.20;;
35294;SDS011;21413;48.032;7.764;2023-05-07T06:55:37;10.17;;;7.60;;
35294;SDS011;21413;48.032;7.764;2023-05-07T06:58:03;8.57;;;7.90;;
35294;SDS011;21413;48.032;7.764;2023-05-07T07:00:30;8.10;;;7.47;;
35294;SDS011;21413;48.032;7.764;2023-05-07T07:02:56;9.20;;;7.10;;
35294;SDS011;21413;48.032;7.764;2023-05-07T07:05:23;7.63;;;7.23;;
35294;SDS011;21413;48.032;7.764;2023-05-07T07:07:49;8.07;;;7.60;;
35294;SDS011;21413;48.032;7.764;2023-05-07T07:10:21;11.63;;;7.40;;
35294;SDS011;21413;48.032;7.764;2023-05-07T07:12:47;7.30;;;6.80;;
35294;SDS011;21413;48.032;7.764;2023-05-07T07:15:13;6.70;;;6.30;;
35294;SDS011;21413;48.032;7.764;2023-05-07T07:17:41;9.23;;;6.30;;
35294;SDS011;21413;48.032;7.764;2023-05-07T07:20:07;5.97;;;5.50;;
35294;SDS011;21413;48.032;7.764;2023-05-07T07:22:33;10.50;;;9.50;;
35294;SDS011;21413;48.032;7.764;2023-05-07T07:24:59;8.13;;;7.43;;
35294;SDS011;21413;48.032;7.764;2023-05-07T07:27:25;6.90;;;6.30;;
35294;SDS011;21413;48.032;7.764;2023-05-07T07:29:51;7.70;;;6.47;;
35294;SDS011;21413;48.032;7.764;2023-05-07T07:32:17;8.70;;;7.20;;
35294;SDS011;21413;48.032;7.764;2023-05-07T07:34:43;6.67;;;6.17;;
35294;SDS011;21413;48.032;7.764;2023-05-07T07:37:09;6.37;;;5.90;;
35294;SDS011;21413;48.032;7.764;2023-05-07T07:39:36;6.33;;;5.43;;
35294;SDS011;21413;48.032;7.764;2023-05-07T07:42:02;6.60;;;6.10;;
35294;SDS011;21413;48.032;7.764;2023-05-07T07:44:28;7.77;;;6.40;;
35294;SDS011;21413;48.032;7.764;2023-05-07T07:46:54;6.97;;;6.57;;
35294;SDS011;21413;48.032;7.764;2023-05-07T07:49:20;7.83;;;7.27;;
35294;SDS011;21413;48.032;7.764;2023-05-07T07:51:46;7.13;;;6.60;;
35294;SDS011;21413;48.032;7.764;2023-05-07T07:54:12;7.37;;;5.67;;
35294;SDS011;21413;48.032;7.764;2023-05-07T07:56:38;6.23;;;5.70;;
35294;SDS011;21413;48.032;7.764;2023-05-07T07:59:06;7.07;;;6.40;;
35294;SDS011;21413;48.032;7.764;2023-05-07T08:01:32;6.73;;;6.33;;
35294;SDS011;21413;48.032;7.764;2023-05-07T08:03:58;6.97;;;6.50;;
35294;SDS011;21413;48.032;7.764;2023-05-07T08:06:24;21.70;;;19.47;;
35294;SDS011;21413;48.032;7.764;2023-05-07T08:08:51;10.57;;;9.50;;
35294;SDS011;21413;48.032;7.764;2023-05-07T08:11:20;6.27;;;5.67;;
35294;SDS011;21413;48.032;7.764;2023-05-07T08:13:46;6.53;;;6.07;;
35294;SDS011;21413;48.032;7.764;2023-05-07T08:16:12;6.20;;;5.90;;
35294;SDS011;21413;48.032;7.764;2023-05-07T08:18:39;6.83;;;5.70;;
35294;SDS011;21413;48.032;7.764;2023-05-07T08:21:05;7.10;;;6.23;;
35294;SDS011;21413;48.032;7.764;2023-05-07T08:23:31;6.90;;;6.23;;
35294;SDS011;21413;48.032;7.764;2023-05-07T08:25:59;6.43;;;5.97;;
35294;SDS011;21413;48.032;7.764;2023-05-07T08:28:25;6.53;;;6.10;;
35294;SDS011;21413;48.032;7.764;2023-05-07T08:30:51;6.17;;;5.60;;
35294;SDS011;21413;48.032;7.764;2023-05-07T08:33:17;5.60;;;5.30;;
35294;SDS011;21413;48.032;7.764;2023-05-07T08:35:46;6.70;;;5.80;;
35294;SDS011;21413;48.032;7.764;2023-05-07T08:38:11;6.37;;;5.70;;
35294;SDS011;21413;48.032;7.764;2023-05-07T08:40:38;6.90;;;6.30;;
35294;SDS011;21413;48.032;7.764;2023-05-07T08:43:06;6.20;;;5.70;;
35294;SDS011;21413;48.032;7.764;2023-05-07T08:45:33;6.47;;;6.00;;
35294;SDS011;21413;48.032;7.764;2023-05-07T08:47:59;6.47;;;5.90;;
35294;SDS011;21413;48.032;7.764;2023-05-07T08:50:25;8.20;;;5.67;;
35294;SDS011;21413;48.032;7.764;2023-05-07T08:52:53;9.67;;;8.77;;
35294;SDS011;21413;48.032;7.764;2023-05-07T08:55:21;10.00;;;6.87;;
35294;SDS011;21413;48.032;7.764;2023-05-07T08:57:47;6.60;;;6.10;;
35294;SDS011;21413;48.032;7.764;2023-05-07T09:00:13;9.50;;;6.50;;
35294;SDS011;21413;48.032;7.764;2023-05-07T09:02:39;6.20;;;5.60;;
35294;SDS011;21413;48.032;7.764;2023-05-07T09:05:05;6.00;;;5.60;;
35294;SDS011;21413;48.032;7.764;2023-05-07T09:07:34;10.40;;;6.07;;
35294;SDS011;21413;48.032;7.764;2023-05-07T09:10:03;5.70;;;5.20;;
35294;SDS011;21413;48.032;7.764;2023-05-07T09:12:30;8.73;;;5.00;;
35294;SDS011;21413;48.032;7.764;2023-05-07T09:14:56;5.70;;;5.33;;
35294;SDS011;21413;48.032;7.764;2023-05-07T09:17:25;6.07;;;5.70;;
35294;SDS011;21413;48.032;7.764;2023-05-07T09:19:51;5.10;;;4.70;;
35294;SDS011;21413;48.032;7.764;2023-05-07T09:22:18;5.60;;;5.10;;
35294;SDS011;21413;48.032;7.764;2023-05-07T09:24:48;5.43;;;4.90;;
35294;SDS011;21413;48.032;7.764;2023-05-07T09:27:16;11.40;;;5.80;;
35294;SDS011;21413;48.032;7.764;2023-05-07T09:29:47;5.30;;;5.00;;
35294;SDS011;21413;48.032;7.764;2023-05-07T09:32:13;7.07;;;6.60;;
35294;SDS011;21413;48.032;7.764;2023-05-07T09:34:41;8.83;;;7.97;;
35294;SDS011;21413;48.032;7.764;2023-05-07T09:37:07;7.20;;;6.60;;
35294;SDS011;21413;48.032;7.764;2023-05-07T09:39:43;6.27;;;5.83;;
35294;SDS011;21413;48.032;7.764;2023-05-07T09:42:12;7.33;;;5.53;;
35294;SDS011;21413;48.032;7.764;2023-05-07T09:44:40;5.80;;;5.40;;
35294;SDS011;21413;48.032;7.764;2023-05-07T09:47:06;6.20;;;4.93;;
35294;SDS011;21413;48.032;7.764;2023-05-07T09:49:36;4.60;;;4.30;;
35294;SDS011;21413;48.032;7.764;2023-05-07T09:52:03;3.90;;;3.73;;
35294;SDS011;21413;48.032;7.764;2023-05-07T09:54:31;7.63;;;4.40;;
35294;SDS011;21413;48.032;7.764;2023-05-07T09:56:58;6.17;;;5.47;;
35294;SDS011;21413;48.032;7.764;2023-05-07T09:59:25;4.83;;;4.50;;
35294;SDS011;21413;48.032;7.764;2023-05-07T10:01:51;5.00;;;4.70;;
35294;SDS011;21413;48.032;7.764;2023-05-07T10:04:17;4.87;;;4.47;;
35294;SDS011;21413;48.032;7.764;2023-05-07T10:06:44;4.07;;;3.90;;
35294;SDS011;21413;48.032;7.764;2023-05-07T10:09:10;9.23;;;3.97;;
35294;SDS011;21413;48.032;7.764;2023-05-07T10:11:36;7.83;;;3.63;;
35294;SDS011;21413;48.032;7.764;2023-05-07T10:14:03;4.97;;;3.30;;
35294;SDS011;21413;48.032;7.764;2023-05-07T10:16:34;2.90;;;2.80;;
35294;SDS011;21413;48.032;7.764;2023-05-07T10:19:03;3.40;;;3.10;;
35294;SDS011;21413;48.032;7.764;2023-05-07T10:21:30;3.90;;;3.70;;
35294;SDS011;21413;48.032;7.764;2023-05-07T10:23:59;5.37;;;3.90;;
35294;SDS011;21413;48.032;7.764;2023-05-07T10:26:28;4.80;;;4.20;;
35294;SDS011;21413;48.032;7.764;2023-05-07T10:29:04;3.90;;;3.70;;
35294;SDS011;21413;48.032;7.764;2023-05-07T10:34:17;6.20;;;4.40;;
35294;SDS011;21413;48.032;7.764;2023-05-07T10:36:45;5.13;;;3.70;;
35294;SDS011;21413;48.032;7.764;2023-05-07T10:39:11;5.30;;;4.97;;
35294;SDS011;21413;48.032;7.764;2023-05-07T10:41:39;5.60;;;5.07;;
35294;SDS011;21413;48.032;7.764;2023-05-07T10:44:05;5.67;;;5.30;;
35294;SDS011;21413;48.032;7.764;2023-05-07T10:46:31;5.93;;;5.50;;
35294;SDS011;21413;48.032;7.764;2023-05-07T10:51:27;8.03;;;7.33;;
35294;SDS011;21413;48.032;7.764;2023-05-07T10:56:41;8.23;;;7.40;;
35294;SDS011;21413;48.032;7.764;2023-05-07T11:04:22;9.27;;;8.50;;
35294;SDS011;21413;48.032;7.764;2023-05-07T11:07:34;9.87;;;8.00;;
35294;SDS011;21413;48.032;7.764;2023-05-07T11:09:54;10.60;;;8.40;;
35294;SDS011;21413;48.032;7.764;2023-05-07T11:15:02;11.70;;;8.17;;
35294;SDS011;21413;48.032;7.764;2023-05-07T11:17:32;7.57;;;6.80;;
35294;SDS011;21413;48.032;7.764;2023-05-07T11:19:59;6.80;;;6.17;;
35294;SDS011;21413;48.032;7.764;2023-05-07T11:25:04;5.47;;;5.17;;
35294;SDS011;21413;48.032;7.764;2023-05-07T11:27:30;5.90;;;4.73;;
35294;SDS011;21413;48.032;7.764;2023-05-07T11:29:56;5.00;;;4.80;;
35294;SDS011;21413;48.032;7.764;2023-05-07T11:32:23;5.10;;;4.73;;
35294;SDS011;21413;48.032;7.764;2023-05-07T11:34:52;5.90;;;5.50;;
35294;SDS011;21413;48.032;7.764;2023-05-07T11:37:18;5.57;;;5.17;;
35294;SDS011;21413;48.032;7.764;2023-05-07T11:39:47;7.57;;;5.53;;
35294;SDS011;21413;48.032;7.764;2023-05-07T11:42:27;6.37;;;5.90;;
35294;SDS011;21413;48.032;7.764;2023-05-07T11:44:53;6.63;;;6.10;;
35294;SDS011;21413;48.032;7.764;2023-05-07T11:47:20;7.70;;;7.20;;
35294;SDS011;21413;48.032;7.764;2023-05-07T11:49:47;6.37;;;5.70;;
35294;SDS011;21413;48.032;7.764;2023-05-07T11:52:13;6.40;;;5.73;;
35294;SDS011;21413;48.032;7.764;2023-05-07T11:54:40;12.10;;;6.33;;
35294;SDS011;21413;48.032;7.764;2023-05-07T11:57:05;7.90;;;7.30;;
35294;SDS011;21413;48.032;7.764;2023-05-07T11:59:38;10.17;;;9.30;;
35294;SDS011;21413;48.032;7.764;2023-05-07T12:02:05;8.43;;;5.50;;
35294;SDS011;21413;48.032;7.764;2023-05-07T12:04:31;6.47;;;5.87;;
35294;SDS011;21413;48.032;7.764;2023-05-07T12:06:57;6.27;;;5.77;;
35294;SDS011;21413;48.032;7.764;2023-05-07T12:09:23;6.00;;;5.50;;
35294;SDS011;21413;48.032;7.764;2023-05-07T12:11:52;5.93;;;5.63;;
35294;SDS011;21413;48.032;7.764;2023-05-07T12:14:18;6.43;;;6.10;;
35294;SDS011;21413;48.032;7.764;2023-05-07T12:16:44;6.37;;;5.77;;
35294;SDS011;21413;48.032;7.764;2023-05-07T12:19:11;6.53;;;5.20;;
35294;SDS011;21413;48.032;7.764;2023-05-07T12:21:37;5.70;;;5.30;;
35294;SDS011;21413;48.032;7.764;2023-05-07T12:24:03;7.10;;;5.67;;
35294;SDS011;21413;48.032;7.764;2023-05-07T12:26:32;5.13;;;4.93;;
35294;SDS011;21413;48.032;7.764;2023-05-07T12:28:58;4.67;;;4.30;;
35294;SDS011;21413;48.032;7.764;2023-05-07T12:31:27;5.00;;;4.80;;
35294;SDS011;21413;48.032;7.764;2023-05-07T12:33:53;5.10;;;4.90;;
35294;SDS011;21413;48.032;7.764;2023-05-07T12:36:19;4.60;;;4.20;;
35294;SDS011;21413;48.032;7.764;2023-05-07T12:38:46;5.43;;;5.00;;
35294;SDS011;21413;48.032;7.764;2023-05-07T12:41:15;4.17;;;3.97;;
35294;SDS011;21413;48.032;7.764;2023-05-07T12:43:44;5.07;;;4.77;;
35294;SDS011;21413;48.032;7.764;2023-05-07T12:46:11;4.93;;;4.53;;
35294;SDS011;21413;48.032;7.764;2023-05-07T12:48:45;4.83;;;4.53;;
35294;SDS011;21413;48.032;7.764;2023-05-07T12:51:11;4.47;;;4.17;;
35294;SDS011;21413;48.032;7.764;2023-05-07T12:53:41;4.37;;;3.97;;
35294;SDS011;21413;48.032;7.764;2023-05-07T12:56:10;5.00;;;4.67;;
35294;SDS011;21413;48.032;7.764;2023-05-07T12:58:36;4.40;;;4.10;;
35294;SDS011;21413;48.032;7.764;2023-05-07T13:01:05;5.03;;;4.67;;
35294;SDS011;21413;48.032;7.764;2023-05-07T13:03:33;4.87;;;4.63;;
35294;SDS011;21413;48.032;7.764;2023-05-07T13:06:02;5.43;;;4.93;;
35294;SDS011;21413;48.032;7.764;2023-05-07T13:08:32;5.30;;;4.90;;
35294;SDS011;21413;48.032;7.764;2023-05-07T13:10:59;6.67;;;6.10;;
35294;SDS011;21413;48.032;7.764;2023-05-07T13:13:31;7.70;;;6.17;;
35294;SDS011;21413;48.032;7.764;2023-05-07T13:15:57;6.47;;;5.97;;
35294;SDS011;21413;48.032;7.764;2023-05-07T13:18:25;5.87;;;5.47;;
35294;SDS011;21413;48.032;7.764;2023-05-07T13:20:52;7.20;;;6.53;;
35294;SDS011;21413;48.032;7.764;2023-05-07T13:23:18;6.23;;;5.60;;
35294;SDS011;21413;48.032;7.764;2023-05-07T13:25:44;6.20;;;5.60;;
35294;SDS011;21413;48.032;7.764;2023-05-07T13:28:10;4.80;;;4.60;;
35294;SDS011;21413;48.032;7.764;2023-05-07T13:30:37;7.83;;;5.30;;
35294;SDS011;21413;48.032;7.764;2023-05-07T13:33:03;4.70;;;4.30;;
35294;SDS011;21413;48.032;7.764;2023-05-07T13:35:29;7.03;;;5.70;;
35294;SDS011;21413;48.032;7.764;2023-05-07T13:37:55;5.70;;;5.00;;
35294;SDS011;21413;48.032;7.764;2023-05-07T13:40:21;3.90;;;3.70;;
35294;SDS011;21413;48.032;7.764;2023-05-07T13:42:48;2.73;;;2.63;;
35294;SDS011;21413;48.032;7.764;2023-05-07T13:45:14;2.90;;;2.77;;
35294;SDS011;21413;48.032;7.764;2023-05-07T13:47:41;3.20;;;3.10;;
35294;SDS011;21413;48.032;7.764;2023-05-07T13:50:07;4.50;;;4.10;;
35294;SDS011;21413;48.032;7.764;2023-05-07T13:52:33;5.40;;;2.60;;
35294;SDS011;21413;48.032;7.764;2023-05-07T13:55:02;1.90;;;1.77;;
35294;SDS011;21413;48.032;7.764;2023-05-07T13:57:28;2.03;;;1.40;;
35294;SDS011;21413;48.032;7.764;2023-05-07T13:59:54;1.30;;;1.30;;
35294;SDS011;21413;48.032;7.764;2023-05-07T14:02:20;1.90;;;1.80;;
35294;SDS011;21413;48.032;7.764;2023-05-07T14:04:46;2.10;;;2.00;;
35294;SDS011;21413;48.032;7.764;2023-05-07T14:07:12;1.60;;;1.60;;
35294;SDS011;21413;48.032;7.764;2023-05-07T14:09:38;1.80;;;1.70;;
35294;SDS011;21413;48.032;7.764;2023-05-07T14:12:06;1.80;;;1.80;;
35294;SDS011;21413;48.032;7.764;2023-05-07T14:14:35;2.23;;;2.13;;
35294;SDS011;21413;48.032;7.764;2023-05-07T14:17:03;1.67;;;1.67;;
35294;SDS011;21413;48.032;7.764;2023-05-07T14:19:29;1.30;;;1.30;;
35294;SDS011;21413;48.032;7.764;2023-05-07T14:21:55;1.30;;;1.30;;
35294;SDS011;21413;48.032;7.764;2023-05-07T14:24:24;1.47;;;1.37;;
35294;SDS011;21413;48.032;7.764;2023-05-07T14:26:52;2.83;;;1.70;;
35294;SDS011;21413;48.032;7.764;2023-05-07T14:29:18;1.57;;;1.57;;
35294;SDS011;21413;48.032;7.764;2023-05-07T14:31:44;2.03;;;1.50;;
35294;SDS011;21413;48.032;7.764;2023-05-07T14:34:11;1.90;;;1.90;;
35294;SDS011;21413;48.032;7.764;2023-05-07T14:36:37;2.40;;;1.63;;
35294;SDS011;21413;48.032;7.764;2023-05-07T14:39:03;4.73;;;4.50;;
35294;SDS011;21413;48.032;7.764;2023-05-07T14:41:29;2.13;;;2.03;;
35294;SDS011;21413;48.032;7.764;2023-05-07T14:43:56;1.70;;;1.60;;
35294;SDS011;21413;48.032;7.764;2023-05-07T14:46:23;1.40;;;1.40;;
35294;SDS011;21413;48.032;7.764;2023-05-07T14:48:53;1.37;;;1.37;;
35294;SDS011;21413;48.032;7.764;2023-05-07T14:51:19;2.80;;;1.87;;
35294;SDS011;21413;48.032;7.764;2023-05-07T14:53:46;1.90;;;1.80;;
35294;SDS011;21413;48.032;7.764;2023-05-07T14:56:12;1.73;;;1.73;;
35294;SDS011;21413;48.032;7.764;2023-05-07T14:58:40;2.07;;;1.90;;
35294;SDS011;21413;48.032;7.764;2023-05-07T15:01:08;1.60;;;1.50;;
35294;SDS011;21413;48.032;7.764;2023-05-07T15:03:37;1.50;;;1.40;;
35294;SDS011;21413;48.032;7.764;2023-05-07T15:06:05;2.00;;;1.40;;